Time;durP1;ratioP1;P1;durP2;ratioP2;P2;SDS_P1;SDS_P2;PMS_P1;PMS_P2;Temp;Humidity;BMP_temperature;BMP_pressure;BME280_temperature;BME280_humidity;BME280_pressure;Samples;Min_cycle;Max_cycle;Signal;HPM_P1;HPM_P2
2021/08/02 00:01:02;;;;;;;2.53;1.90;;;22.30;99.90;;;;;;5014580;28;20430;-64
2021/08/02 00:03:43;;;;;;;2.28;1.58;;;22.40;99.90;;;;;;5008343;28;20494;-64
2021/08/02 00:06:11;;;;;;;2.10;1.73;;;22.40;99.90;;;;;;5014682;28;20076;-66
2021/08/02 00:08:36;;;;;;;2.05;1.55;;;22.40;99.90;;;;;;5014298;28;20041;-66
2021/08/02 00:11:03;;;;;;;3.30;1.95;;;22.40;99.90;;;;;;5014557;28;20038;-65
2021/08/02 00:13:30;;;;;;;2.35;1.83;;;22.30;99.90;;;;;;5031422;28;20052;-65
2021/08/02 00:16:07;;;;;;;2.38;2.05;;;22.30;99.90;;;;;;5034281;28;20561;-66
2021/08/02 00:18:34;;;;;;;3.58;1.70;;;22.30;99.90;;;;;;5034065;28;20034;-66
2021/08/02 00:21:05;;;;;;;3.85;1.85;;;22.30;99.90;;;;;;5034101;28;20026;-66
2021/08/02 00:23:31;;;;;;;3.00;1.95;;;22.30;99.90;;;;;;5034045;28;20397;-65
2021/08/02 00:26:01;;;;;;;2.95;1.92;;;22.30;99.90;;;;;;5016423;28;20028;-66
2021/08/02 00:28:29;;;;;;;3.63;1.63;;;22.30;99.90;;;;;;5016159;28;20116;-66
2021/08/02 00:30:55;;;;;;;3.20;2.25;;;22.30;99.90;;;;;;5033941;28;20029;-66
2021/08/02 00:33:21;;;;;;;3.85;1.90;;;22.30;99.90;;;;;;5033625;28;20030;-66
2021/08/02 00:36:11;;;;;;;1.88;1.63;;;22.30;99.90;;;;;;5033598;28;20108;-69
2021/08/02 00:38:46;;;;;;;2.95;1.80;;;22.40;99.90;;;;;;5033604;28;20478;-71
2021/08/02 00:41:18;;;;;;;3.78;2.05;;;22.40;99.90;;;;;;5034122;28;20033;-66
2021/08/02 00:44:09;;;;;;;2.90;2.00;;;22.40;99.90;;;;;;5034272;28;20018;-66
2021/08/02 00:46:40;;;;;;;2.13;1.60;;;22.40;99.90;;;;;;5033533;28;20377;-66
2021/08/02 00:49:10;;;;;;;3.55;1.70;;;22.30;99.90;;;;;;5033540;28;20033;-65
2021/08/02 00:51:41;;;;;;;2.95;2.05;;;22.30;99.90;;;;;;5033294;28;20449;-67
2021/08/02 00:54:07;;;;;;;3.55;1.92;;;22.40;99.90;;;;;;5033615;28;20026;-69
2021/08/02 00:56:34;;;;;;;4.28;1.60;;;22.40;99.90;;;;;;5033661;28;20049;-66
2021/08/02 00:59:04;;;;;;;2.13;1.85;;;22.30;99.90;;;;;;5033515;28;20022;-66
2021/08/02 01:01:32;;;;;;;2.75;1.80;;;22.30;99.90;;;;;;5033091;28;20504;-70
2021/08/02 01:04:00;;;;;;;2.05;1.83;;;22.40;99.90;;;;;;5033342;28;20037;-66
2021/08/02 01:06:29;;;;;;;4.20;1.98;;;22.30;99.90;;;;;;5033226;28;20021;-68
2021/08/02 01:08:55;;;;;;;2.88;2.08;;;22.40;99.90;;;;;;5019675;28;20026;-71
2021/08/02 01:11:24;;;;;;;3.20;1.70;;;22.40;99.90;;;;;;5013246;28;20038;-70
2021/08/02 01:13:51;;;;;;;2.03;1.80;;;22.30;99.90;;;;;;5013432;28;20489;-68
2021/08/02 01:16:17;;;;;;;4.18;1.90;;;22.30;99.90;;;;;;5013078;28;20034;-67
2021/08/02 01:18:45;;;;;;;6.05;1.75;;;22.30;99.90;;;;;;5013629;28;20094;-68
2021/08/02 01:21:14;;;;;;;2.03;1.60;;;22.30;99.90;;;;;;5013512;28;20052;-66
2021/08/02 01:23:40;;;;;;;2.55;1.90;;;22.30;99.90;;;;;;5013432;28;20041;-69
2021/08/02 01:26:40;;;;;;;1.80;1.65;;;22.30;99.90;;;;;;5013127;28;20113;-69
2021/08/02 01:29:43;;;;;;;1.63;1.48;;;22.30;99.90;;;;;;5012947;28;20505;-70
2021/08/02 01:32:09;;;;;;;2.60;1.88;;;22.30;99.90;;;;;;5013104;28;20034;-70
2021/08/02 01:34:35;;;;;;;2.05;1.80;;;22.30;99.90;;;;;;5012828;28;20273;-70
2021/08/02 01:37:00;;;;;;;2.85;1.85;;;22.30;99.90;;;;;;5013027;28;20018;-67
2021/08/02 01:39:26;;;;;;;2.85;1.85;;;22.30;99.90;;;;;;5012668;28;20045;-71
2021/08/02 01:41:52;;;;;;;3.05;1.67;;;22.20;99.90;;;;;;4995326;28;20022;-71
2021/08/02 01:44:17;;;;;;;3.83;1.80;;;22.30;99.90;;;;;;5012762;28;20091;-70
2021/08/02 01:47:08;;;;;;;6.68;2.03;;;22.30;99.90;;;;;;5012354;28;20481;-70
2021/08/02 01:49:46;;;;;;;6.80;1.70;;;22.20;99.90;;;;;;4985036;28;20049;-70
2021/08/02 01:52:21;;;;;;;3.60;1.95;;;22.20;99.90;;;;;;5013073;28;20064;-69
2021/08/02 01:54:52;;;;;;;2.40;1.95;;;22.20;99.90;;;;;;5013786;28;20025;-69
2021/08/02 01:57:27;;;;;;;2.70;1.70;;;22.30;99.90;;;;;;5012446;28;20034;-68
2021/08/02 01:59:58;;;;;;;2.75;2.00;;;22.30;99.90;;;;;;5012540;28;20168;-68
2021/08/02 02:02:26;;;;;;;3.55;2.08;;;22.30;99.90;;;;;;5012363;28;20033;-69
2021/08/02 02:05:04;;;;;;;3.65;2.20;;;22.20;99.90;;;;;;5025180;28;20079;-70
2021/08/02 02:07:40;;;;;;;2.33;2.00;;;22.20;99.90;;;;;;5032020;28;20018;-67
2021/08/02 02:10:07;;;;;;;5.47;1.73;;;22.30;99.90;;;;;;5032135;28;20503;-69
2021/08/02 02:12:33;;;;;;;3.10;1.90;;;22.20;99.90;;;;;;5031645;28;20021;-68
2021/08/02 02:15:01;;;;;;;2.05;1.80;;;22.20;99.90;;;;;;5031938;28;20512;-66
2021/08/02 02:17:27;;;;;;;3.35;2.15;;;22.20;99.90;;;;;;5028415;28;20393;-71
2021/08/02 02:19:54;;;;;;;3.75;2.08;;;22.20;99.90;;;;;;5012267;28;20026;-71
2021/08/02 02:22:23;;;;;;;3.45;2.17;;;22.20;99.90;;;;;;5012005;28;20026;-70
2021/08/02 02:24:51;;;;;;;3.80;2.10;;;22.20;99.90;;;;;;5012242;28;20498;-67
2021/08/02 02:27:17;;;;;;;4.45;1.90;;;22.20;99.90;;;;;;5011876;28;20030;-68
2021/08/02 02:29:44;;;;;;;4.43;1.80;;;22.30;99.90;;;;;;5012332;28;20069;-68
2021/08/02 02:32:10;;;;;;;3.03;2.00;;;22.20;99.90;;;;;;5012280;28;20088;-69
2021/08/02 02:34:37;;;;;;;12.50;1.88;;;22.20;99.90;;;;;;5011874;28;20029;-66
2021/08/02 02:37:05;;;;;;;6.03;2.30;;;22.20;99.90;;;;;;5012020;28;20029;-68
2021/08/02 02:39:31;;;;;;;5.35;2.10;;;22.20;99.90;;;;;;5011659;28;20061;-70
2021/08/02 02:41:58;;;;;;;4.03;1.98;;;22.20;99.90;;;;;;5011866;28;20030;-65
2021/08/02 02:44:25;;;;;;;4.45;2.03;;;22.20;99.90;;;;;;5011680;28;20513;-70
2021/08/02 02:46:52;;;;;;;2.95;1.90;;;22.20;99.90;;;;;;5011928;28;20060;-70
2021/08/02 02:49:19;;;;;;;4.45;2.30;;;22.20;99.90;;;;;;5011497;28;20030;-68
2021/08/02 02:51:46;;;;;;;2.85;1.95;;;22.20;99.90;;;;;;5012067;28;20030;-69
2021/08/02 02:54:13;;;;;;;3.67;2.00;;;22.20;99.90;;;;;;5019875;28;20083;-69
2021/08/02 02:56:39;;;;;;;5.13;2.00;;;22.20;99.90;;;;;;5031342;28;20022;-70
2021/08/02 02:59:05;;;;;;;3.05;2.00;;;22.20;99.90;;;;;;5031353;28;20038;-71
2021/08/02 03:01:38;;;;;;;4.10;2.20;;;22.20;99.90;;;;;;5031253;28;20389;-69
2021/08/02 03:04:06;;;;;;;5.00;2.05;;;22.20;99.90;;;;;;5029701;28;20034;-67
2021/08/02 03:06:33;;;;;;;11.35;2.42;;;22.20;99.90;;;;;;5030827;28;20460;-71
2021/08/02 03:08:59;;;;;;;2.60;1.80;;;22.20;99.90;;;;;;5031314;28;20025;-69
2021/08/02 03:11:25;;;;;;;4.10;2.30;;;22.20;99.90;;;;;;5031085;28;20397;-71
2021/08/02 03:13:52;;;;;;;3.78;2.08;;;22.20;99.90;;;;;;5031244;28;20026;-70
2021/08/02 03:16:19;;;;;;;4.70;2.35;;;22.10;99.90;;;;;;5031243;28;20469;-70
2021/08/02 03:18:45;;;;;;;3.95;2.20;;;22.20;99.90;;;;;;5031258;28;20017;-71
2021/08/02 03:21:14;;;;;;;3.42;2.00;;;22.20;99.90;;;;;;5031411;28;20032;-71
2021/08/02 03:24:08;;;;;;;3.28;2.25;;;22.20;99.90;;;;;;5031433;28;20496;-71
2021/08/02 03:27:11;;;;;;;3.35;2.30;;;22.20;99.90;;;;;;5031033;28;20083;-68
2021/08/02 03:29:42;;;;;;;3.47;1.98;;;22.10;99.90;;;;;;4969989;28;20038;-70
2021/08/02 03:32:13;;;;;;;2.70;2.10;;;22.10;99.90;;;;;;5020430;28;20044;-68
2021/08/02 03:34:40;;;;;;;4.28;2.10;;;22.10;99.90;;;;;;5025125;28;20030;-70
2021/08/02 03:37:08;;;;;;;3.33;1.90;;;22.10;99.90;;;;;;5011482;28;20456;-71
2021/08/02 03:39:35;;;;;;;3.53;2.10;;;22.10;99.90;;;;;;5011149;28;20084;-69
2021/08/02 03:42:02;;;;;;;4.20;2.40;;;22.20;99.90;;;;;;5011533;28;20084;-68
2021/08/02 03:44:29;;;;;;;3.42;1.95;;;22.10;99.90;;;;;;5011074;28;20021;-69
2021/08/02 03:46:55;;;;;;;5.60;2.30;;;22.10;99.90;;;;;;4993674;28;20030;-70
2021/08/02 03:49:21;;;;;;;5.03;2.47;;;22.10;99.90;;;;;;5011023;28;20038;-69
2021/08/02 03:51:54;;;;;;;3.92;2.00;;;22.10;99.90;;;;;;5011427;28;20457;-68
2021/08/02 03:54:19;;;;;;;6.00;2.28;;;22.10;99.90;;;;;;5004702;28;20028;-66
2021/08/02 03:56:45;;;;;;;3.70;2.30;;;22.10;99.90;;;;;;5030824;28;20025;-64
2021/08/02 03:59:13;;;;;;;3.15;2.20;;;22.20;99.90;;;;;;5011649;28;20382;-66
2021/08/02 04:01:43;;;;;;;3.90;2.35;;;22.20;99.90;;;;;;5010972;28;20033;-69
2021/08/02 04:04:10;;;;;;;3.47;2.38;;;22.10;99.90;;;;;;5011167;28;20042;-67
2021/08/02 04:06:36;;;;;;;5.68;2.40;;;22.10;99.90;;;;;;5010910;28;20022;-67
2021/08/02 04:09:04;;;;;;;5.90;2.40;;;22.10;99.90;;;;;;5011347;28;20034;-67
2021/08/02 04:11:30;;;;;;;5.18;2.85;;;22.10;99.90;;;;;;5013291;28;20485;-69
2021/08/02 04:13:55;;;;;;;3.78;2.42;;;22.10;99.90;;;;;;5014629;28;20033;-68
2021/08/02 04:16:21;;;;;;;5.75;2.28;;;22.10;99.90;;;;;;5014358;28;20032;-66
2021/08/02 04:18:46;;;;;;;3.92;2.47;;;22.00;99.90;;;;;;5014547;28;20029;-69
2021/08/02 04:21:12;;;;;;;3.42;2.30;;;22.00;99.90;;;;;;4997102;28;20029;-67
2021/08/02 04:23:38;;;;;;;5.38;2.60;;;22.00;99.90;;;;;;5018763;28;20021;-69
2021/08/02 04:26:05;;;;;;;4.65;2.50;;;22.00;99.90;;;;;;5034149;28;20028;-68
2021/08/02 04:28:31;;;;;;;4.30;2.15;;;22.00;99.90;;;;;;5033904;28;20492;-67
2021/08/02 04:30:56;;;;;;;4.10;2.25;;;22.00;99.90;;;;;;5033917;28;20061;-68
2021/08/02 04:33:23;;;;;;;3.17;2.10;;;22.00;99.90;;;;;;5033807;28;20025;-67
2021/08/02 04:35:49;;;;;;;5.10;2.33;;;22.00;99.90;;;;;;5033951;28;20026;-70
2021/08/02 04:38:15;;;;;;;3.25;2.38;;;21.90;99.90;;;;;;5034144;28;20026;-66
2021/08/02 04:40:41;;;;;;;5.78;2.20;;;21.90;99.90;;;;;;5034078;28;20109;-69
2021/08/02 04:43:06;;;;;;;3.53;2.13;;;21.90;99.90;;;;;;5033889;28;20049;-67
2021/08/02 04:45:32;;;;;;;3.03;2.00;;;21.90;99.90;;;;;;5033566;28;20072;-70
2021/08/02 04:47:58;;;;;;;3.15;2.00;;;21.90;99.90;;;;;;5033614;28;20026;-70
2021/08/02 04:50:24;;;;;;;3.95;2.05;;;21.90;99.90;;;;;;5033320;28;20493;-70
2021/08/02 04:52:50;;;;;;;3.28;2.17;;;21.90;99.90;;;;;;5033762;28;20028;-68
2021/08/02 04:55:17;;;;;;;3.55;2.03;;;21.90;99.90;;;;;;5014499;28;20053;-67
2021/08/02 04:57:43;;;;;;;2.85;2.10;;;21.90;99.90;;;;;;5013874;28;20112;-69
2021/08/02 05:00:09;;;;;;;5.20;2.47;;;21.90;99.90;;;;;;5014800;28;20113;-70
2021/08/02 05:02:35;;;;;;;5.03;2.03;;;21.90;99.90;;;;;;5013339;28;20101;-69
2021/08/02 05:05:00;;;;;;;3.45;2.20;;;21.80;99.90;;;;;;5013906;28;20113;-69
2021/08/02 05:07:26;;;;;;;3.05;2.05;;;21.90;99.90;;;;;;5013366;28;20030;-70
2021/08/02 05:09:52;;;;;;;2.83;1.98;;;21.80;99.90;;;;;;5013443;28;20052;-67
2021/08/02 05:12:18;;;;;;;3.60;2.17;;;21.80;99.90;;;;;;5013297;28;20406;-69
2021/08/02 05:14:43;;;;;;;3.42;2.25;;;21.80;99.90;;;;;;5013665;28;20057;-68
2021/08/02 05:17:09;;;;;;;3.38;1.85;;;21.80;99.90;;;;;;5013426;28;20474;-68
2021/08/02 05:19:35;;;;;;;3.13;2.08;;;21.80;99.90;;;;;;5013028;28;20041;-71
2021/08/02 05:22:01;;;;;;;4.78;2.00;;;21.80;99.90;;;;;;5012266;28;20038;-71
2021/08/02 05:24:26;;;;;;;4.53;2.25;;;21.80;99.90;;;;;;5027138;28;20068;-72
2021/08/02 05:26:52;;;;;;;5.03;1.92;;;21.80;99.90;;;;;;5032971;28;20021;-72
2021/08/02 05:29:18;;;;;;;3.25;2.20;;;21.70;99.90;;;;;;5032763;28;20040;-71
2021/08/02 05:31:43;;;;;;;4.88;1.75;;;21.70;99.90;;;;;;5033168;28;20038;-72
2021/08/02 05:34:11;;;;;;;3.90;1.85;;;21.70;99.90;;;;;;5032833;28;20017;-72
2021/08/02 05:36:38;;;;;;;3.03;1.92;;;21.80;99.90;;;;;;5032545;28;20064;-67
2021/08/02 05:39:03;;;;;;;4.32;2.03;;;21.70;99.90;;;;;;5032327;28;20025;-71
2021/08/02 05:41:29;;;;;;;4.30;2.08;;;21.70;99.90;;;;;;5032599;28;20025;-70
2021/08/02 05:43:54;;;;;;;3.20;2.10;;;21.70;99.90;;;;;;5032736;28;20059;-71
2021/08/02 05:46:20;;;;;;;3.08;1.70;;;21.70;99.90;;;;;;5032354;28;20029;-70
2021/08/02 05:48:46;;;;;;;2.67;1.58;;;21.70;99.90;;;;;;5032438;28;20486;-71
2021/08/02 05:51:12;;;;;;;3.00;1.98;;;21.70;99.90;;;;;;5032772;28;20047;-70
2021/08/02 05:53:37;;;;;;;3.83;1.70;;;21.60;99.90;;;;;;5024445;28;20104;-71
2021/08/02 05:56:03;;;;;;;3.08;1.80;;;21.70;99.90;;;;;;5012709;28;20064;-72
2021/08/02 05:58:29;;;;;;;3.03;1.92;;;21.70;99.90;;;;;;5012329;28;20084;-71
2021/08/02 06:00:54;;;;;;;3.42;1.80;;;21.60;99.90;;;;;;5012554;28;20026;-72
2021/08/02 06:03:21;;;;;;;2.83;1.73;;;21.60;99.90;;;;;;5012359;28;20033;-70
2021/08/02 06:05:47;;;;;;;2.90;1.63;;;21.60;99.90;;;;;;5012381;28;20030;-69
2021/08/02 06:08:12;;;;;;;2.80;1.67;;;21.60;99.90;;;;;;5012653;28;20192;-71
2021/08/02 06:10:38;;;;;;;2.95;1.80;;;21.60;99.90;;;;;;5012158;28;20037;-71
2021/08/02 06:13:04;;;;;;;2.20;1.27;;;21.60;99.90;;;;;;5012395;28;20020;-70
2021/08/02 06:15:29;;;;;;;3.17;1.63;;;21.60;99.90;;;;;;5012115;28;20025;-70
2021/08/02 06:17:55;;;;;;;4.03;1.63;;;21.60;99.90;;;;;;5012228;28;20489;-70
2021/08/02 06:20:21;;;;;;;3.47;1.60;;;21.60;99.90;;;;;;5012102;28;20037;-68
2021/08/02 06:22:46;;;;;;;2.28;1.60;;;21.60;99.90;;;;;;5012251;28;20030;-67
2021/08/02 06:25:12;;;;;;;3.53;1.52;;;21.60;99.90;;;;;;4995722;28;20432;-67
2021/08/02 06:27:37;;;;;;;2.97;1.52;;;21.60;99.90;;;;;;5011980;28;20026;-67
2021/08/02 06:30:05;;;;;;;6.93;1.75;;;21.60;99.90;;;;;;5012075;28;20080;-70
2021/08/02 06:32:31;;;;;;;5.00;1.42;;;21.60;99.90;;;;;;5011640;28;20588;-70
2021/08/02 06:34:57;;;;;;;5.68;1.58;;;21.60;99.90;;;;;;5011935;28;20022;-70
2021/08/02 06:37:23;;;;;;;2.25;1.20;;;21.70;99.90;;;;;;5012698;28;20046;-69
2021/08/02 06:39:50;;;;;;;3.60;1.48;;;21.70;99.90;;;;;;5012084;28;20036;-70
2021/08/02 06:42:16;;;;;;;1.83;1.30;;;21.70;99.90;;;;;;5011816;28;20030;-68
2021/08/02 06:44:42;;;;;;;2.40;1.20;;;21.70;99.90;;;;;;5012303;28;20539;-71
2021/08/02 06:47:09;;;;;;;3.30;1.50;;;21.70;99.90;;;;;;5011912;28;20022;-71
2021/08/02 06:49:34;;;;;;;2.50;1.60;;;21.70;99.90;;;;;;4993717;28;20042;-64
2021/08/02 06:52:00;;;;;;;6.03;1.60;;;21.70;99.90;;;;;;5011845;28;20048;-77
2021/08/02 06:54:26;;;;;;;5.25;1.95;;;21.70;99.90;;;;;;5005326;28;20092;-70
2021/08/02 06:56:51;;;;;;;6.72;1.63;;;21.80;99.90;;;;;;5031664;28;20034;-68
2021/08/02 06:59:17;;;;;;;3.17;1.40;;;21.80;99.90;;;;;;5031300;28;20497;-70
2021/08/02 07:01:43;;;;;;;3.63;1.48;;;21.80;99.90;;;;;;5031753;28;20049;-70
2021/08/02 07:04:08;;;;;;;4.72;1.80;;;21.80;99.90;;;;;;5031502;28;20027;-75
2021/08/02 07:06:34;;;;;;;5.22;2.05;;;21.80;99.90;;;;;;5028761;28;20869;-76
2021/08/02 07:09:00;;;;;;;2.63;1.98;;;21.80;99.90;;;;;;5018393;28;20022;-76
2021/08/02 07:11:26;;;;;;;3.28;1.90;;;21.70;99.90;;;;;;5031090;28;20044;-76
2021/08/02 07:13:54;;;;;;;4.90;2.30;;;21.70;99.90;;;;;;5031305;28;20057;-76
2021/08/02 07:16:21;;;;;;;5.78;2.58;;;21.70;99.90;;;;;;5030972;28;20029;-75
2021/08/02 07:18:46;;;;;;;3.45;2.45;;;21.70;99.90;;;;;;5031310;28;20377;-76
2021/08/02 07:21:12;;;;;;;4.20;2.40;;;21.70;99.90;;;;;;5031514;28;20028;-75
2021/08/02 07:23:38;;;;;;;5.20;2.80;;;21.80;99.90;;;;;;5024708;28;20053;-76
2021/08/02 07:26:04;;;;;;;5.65;2.70;;;21.80;99.90;;;;;;5011674;28;20120;-73
2021/08/02 07:28:29;;;;;;;5.30;2.78;;;21.80;99.90;;;;;;5011222;28;20030;-75
2021/08/02 07:30:55;;;;;;;4.20;2.60;;;21.40;99.90;;;;;;5011357;28;20037;-74
2021/08/02 07:33:22;;;;;;;5.10;2.70;;;21.50;99.90;;;;;;5013076;28;20129;-74
2021/08/02 07:35:47;;;;;;;5.45;2.22;;;21.80;99.90;;;;;;5011441;28;20084;-74
2021/08/02 07:38:13;;;;;;;5.20;2.88;;;21.70;99.90;;;;;;5012545;28;20409;-75
2021/08/02 07:40:39;;;;;;;6.22;2.20;;;21.40;99.90;;;;;;5011262;28;20069;-75
2021/08/02 07:43:06;;;;;;;3.55;1.92;;;21.40;99.90;;;;;;5011435;28;20026;-74
2021/08/02 07:45:33;;;;;;;3.45;2.10;;;21.90;99.90;;;;;;5018636;28;20522;-74
2021/08/02 07:47:59;;;;;;;2.90;1.80;;;22.00;99.90;;;;;;5014966;28;20037;-75
2021/08/02 07:50:25;;;;;;;3.53;2.00;;;22.00;99.90;;;;;;5014894;28;20038;-74
2021/08/02 07:52:50;;;;;;;3.38;2.08;;;21.90;99.90;;;;;;5014986;28;20069;-75
2021/08/02 07:55:17;;;;;;;4.85;2.03;;;22.20;99.90;;;;;;4998307;28;20054;-76
2021/08/02 07:57:43;;;;;;;4.45;2.05;;;22.40;99.90;;;;;;5028472;28;20025;-75
2021/08/02 08:00:11;;;;;;;5.07;2.08;;;22.40;99.90;;;;;;5034638;28;20500;-76
2021/08/02 08:02:36;;;;;;;3.85;1.70;;;21.90;99.90;;;;;;5016590;28;20030;-75
2021/08/02 08:05:02;;;;;;;3.67;2.00;;;21.60;99.90;;;;;;5034602;28;20021;-76
2021/08/02 08:07:27;;;;;;;3.75;1.83;;;21.50;99.90;;;;;;5034280;28;20381;-75
2021/08/02 08:09:53;;;;;;;3.13;1.80;;;21.70;99.90;;;;;;5034437;28;20116;-77
2021/08/02 08:12:19;;;;;;;5.00;1.95;;;21.90;99.90;;;;;;5034336;28;20029;-81
2021/08/02 08:14:44;;;;;;;3.50;1.40;;;22.10;99.90;;;;;;5033966;28;20104;-77
2021/08/02 08:17:10;;;;;;;4.43;1.75;;;22.20;99.90;;;;;;5034434;28;20420;-75
2021/08/02 08:19:35;;;;;;;2.83;1.50;;;22.40;99.90;;;;;;5003824;28;20542;-76
2021/08/02 08:22:01;;;;;;;3.47;1.88;;;22.50;99.90;;;;;;5033538;28;20052;-75
2021/08/02 08:24:27;;;;;;;3.70;1.80;;;22.40;99.90;;;;;;5034123;28;20061;-74
2021/08/02 08:26:52;;;;;;;4.70;1.75;;;21.90;99.90;;;;;;5034225;28;20021;-75
2021/08/02 08:29:18;;;;;;;5.43;1.98;;;22.10;99.90;;;;;;5033990;28;20392;-80
2021/08/02 08:31:44;;;;;;;4.35;1.90;;;22.10;99.90;;;;;;5034300;28;20033;-80
2021/08/02 08:34:10;;;;;;;3.10;1.50;;;22.10;99.90;;;;;;5034173;28;20029;-81
2021/08/02 08:36:35;;;;;;;4.15;1.85;;;22.00;99.90;;;;;;5032140;28;20033;-75
2021/08/02 08:39:03;;;;;;;2.83;1.33;;;22.00;99.90;;;;;;5033969;28;20033;-78
2021/08/02 08:41:29;;;;;;;5.35;1.50;;;21.90;99.90;;;;;;5033474;28;20022;-74
2021/08/02 08:43:55;;;;;;;8.05;1.88;;;21.90;99.90;;;;;;5031562;28;20028;-76
2021/08/02 08:46:21;;;;;;;4.13;1.65;;;21.90;99.90;;;;;;5009534;28;20026;-76
2021/08/02 08:48:48;;;;;;;5.28;1.83;;;21.70;99.90;;;;;;5020629;28;20062;-75
2021/08/02 08:51:14;;;;;;;3.40;1.67;;;21.60;99.90;;;;;;5028473;28;20068;-75
2021/08/02 08:53:44;;;;;;;3.47;1.70;;;21.50;99.90;;;;;;5023469;28;20109;-77
2021/08/02 08:56:11;;;;;;;5.45;1.60;;;21.40;99.90;;;;;;5027276;28;20127;-75
2021/08/02 08:58:37;;;;;;;4.00;1.60;;;21.40;99.90;;;;;;4998208;28;20033;-76
2021/08/02 09:01:04;;;;;;;5.03;1.90;;;21.40;99.90;;;;;;5013726;28;20026;-74
2021/08/02 09:03:30;;;;;;;4.22;1.75;;;21.30;99.90;;;;;;5013302;28;20105;-74
2021/08/02 09:06:07;;;;;;;3.80;1.60;;;21.30;99.90;;;;;;5013567;28;20108;-75
2021/08/02 09:08:41;;;;;;;4.95;1.40;;;21.30;99.90;;;;;;5013313;28;20022;-75
2021/08/02 09:11:07;;;;;;;3.15;1.65;;;21.40;99.90;;;;;;5013459;28;20125;-75
2021/08/02 09:13:35;;;;;;;5.03;1.70;;;21.30;99.90;;;;;;5013111;28;20478;-76
2021/08/02 09:16:20;;;;;;;5.22;1.90;;;21.20;99.90;;;;;;5013469;28;20401;-75
2021/08/02 09:19:03;;;;;;;5.82;1.98;;;21.20;99.90;;;;;;5019548;28;20022;-72
2021/08/02 09:21:50;;;;;;;3.13;1.83;;;21.30;99.90;;;;;;5032778;28;20033;-74
2021/08/02 09:24:31;;;;;;;3.75;2.03;;;21.40;99.90;;;;;;5032787;28;20025;-74
2021/08/02 09:26:57;;;;;;;4.13;1.95;;;21.60;99.90;;;;;;5032978;28;20030;-73
2021/08/02 09:29:33;;;;;;;3.95;1.90;;;21.70;99.90;;;;;;5032694;28;20068;-74
2021/08/02 09:32:00;;;;;;;4.40;1.70;;;21.70;99.90;;;;;;5032799;28;20503;-74
2021/08/02 09:34:26;;;;;;;3.40;1.73;;;21.90;99.90;;;;;;5032574;28;20018;-74
2021/08/02 09:36:59;;;;;;;2.35;1.60;;;21.90;99.90;;;;;;5031026;28;20044;-74
2021/08/02 09:39:32;;;;;;;3.60;1.92;;;22.00;99.90;;;;;;5032753;28;20439;-75
2021/08/02 09:42:08;;;;;;;4.10;1.75;;;22.10;99.90;;;;;;5032652;28;20029;-73
2021/08/02 09:44:33;;;;;;;3.30;1.70;;;22.00;99.90;;;;;;5022433;28;20038;-74
2021/08/02 09:47:01;;;;;;;4.63;2.00;;;22.10;99.90;;;;;;5012943;28;20386;-73
2021/08/02 09:49:31;;;;;;;3.67;2.03;;;22.00;99.90;;;;;;5012413;28;20114;-73
2021/08/02 09:51:56;;;;;;;3.65;1.88;;;22.00;99.90;;;;;;5012501;28;20042;-75
2021/08/02 09:54:28;;;;;;;2.67;1.60;;;22.00;99.90;;;;;;5016789;28;20347;-73
2021/08/02 09:56:55;;;;;;;2.92;1.40;;;22.00;99.90;;;;;;5032340;28;20031;-75
2021/08/02 09:59:21;;;;;;;3.80;1.60;;;22.00;99.90;;;;;;5031889;28;20026;-75
2021/08/02 10:01:52;;;;;;;2.20;1.40;;;22.10;99.90;;;;;;5032365;28;20087;-75
2021/08/02 10:04:18;;;;;;;3.72;1.77;;;22.20;99.90;;;;;;5031255;28;20508;-74
2021/08/02 10:06:44;;;;;;;3.63;1.70;;;22.20;99.90;;;;;;5032470;28;20037;-76
2021/08/02 10:09:13;;;;;;;4.72;1.58;;;22.10;99.90;;;;;;5014043;28;20026;-74
2021/08/02 10:11:42;;;;;;;4.15;1.35;;;22.10;99.90;;;;;;5016605;28;20034;-75
2021/08/02 10:14:11;;;;;;;3.20;1.65;;;22.20;99.90;;;;;;5017516;28;20022;-75
2021/08/02 10:16:41;;;;;;;3.05;1.70;;;22.10;99.90;;;;;;5012057;28;20022;-76
2021/08/02 10:19:08;;;;;;;3.38;1.55;;;22.10;99.90;;;;;;5012317;28;20033;-75
2021/08/02 10:21:38;;;;;;;2.88;1.40;;;22.10;99.90;;;;;;5012137;28;20050;-76
2021/08/02 10:24:09;;;;;;;4.15;1.27;;;22.30;99.90;;;;;;5013236;28;20026;-76
2021/08/02 10:26:35;;;;;;;5.60;1.30;;;22.30;99.90;;;;;;5012058;28;20044;-78
2021/08/02 10:29:03;;;;;;;4.30;1.20;;;22.30;99.90;;;;;;5012282;28;20122;-77
2021/08/02 10:31:47;;;;;;;9.77;1.70;;;22.50;99.90;;;;;;5011766;28;20486;-77
2021/08/02 10:34:21;;;;;;;3.08;1.13;;;22.60;99.90;;;;;;5012251;28;20030;-76
2021/08/02 10:37:00;;;;;;;2.95;1.10;;;22.60;99.90;;;;;;5011879;28;20486;-76
2021/08/02 10:39:28;;;;;;;4.38;1.30;;;22.60;99.90;;;;;;5012178;28;20025;-76
2021/08/02 10:42:07;;;;;;;2.17;1.10;;;22.60;99.90;;;;;;5011817;28;20381;-72
2021/08/02 10:44:32;;;;;;;5.47;1.30;;;22.60;99.90;;;;;;5023927;28;20028;-79
2021/08/02 10:47:05;;;;;;;9.52;1.67;;;22.50;99.90;;;;;;5031636;28;20112;-75
2021/08/02 10:49:31;;;;;;;2.90;1.30;;;23.00;99.90;;;;;;5030938;28;20047;-69
2021/08/02 10:51:56;;;;;;;2.55;1.05;;;23.30;99.90;;;;;;5031173;28;20045;-72
2021/08/02 10:54:24;;;;;;;2.42;1.10;;;23.40;99.90;;;;;;5031125;28;20117;-71
2021/08/02 10:56:50;;;;;;;2.55;1.00;;;23.60;99.90;;;;;;5031481;28;20022;-67
2021/08/02 10:59:21;;;;;;;2.55;0.88;;;23.90;99.90;;;;;;5031378;28;20054;-70
2021/08/02 11:01:48;;;;;;;3.35;1.02;;;24.00;99.90;;;;;;5030935;28;20382;-68
2021/08/02 11:04:17;;;;;;;1.88;1.00;;;24.20;99.90;;;;;;5016298;28;20042;-67
2021/08/02 11:06:49;;;;;;;1.95;1.20;;;24.30;99.90;;;;;;5013968;28;20087;-68
2021/08/02 11:09:30;;;;;;;4.78;1.17;;;24.40;99.90;;;;;;5011600;28;20026;-68
2021/08/02 11:12:09;;;;;;;2.97;1.10;;;24.40;99.90;;;;;;5011846;28;20049;-68
2021/08/02 11:14:48;;;;;;;2.33;1.10;;;24.40;99.90;;;;;;5011534;28;20037;-68
2021/08/02 11:17:25;;;;;;;2.63;1.15;;;24.40;99.90;;;;;;5012110;28;20080;-68
2021/08/02 11:20:03;;;;;;;1.20;0.80;;;24.50;99.90;;;;;;5025779;28;20037;-69
2021/08/02 11:22:28;;;;;;;2.60;1.10;;;24.50;99.90;;;;;;5035220;28;20060;-67
2021/08/02 11:24:59;;;;;;;1.63;0.90;;;24.50;99.90;;;;;;5025082;28;20385;-68
2021/08/02 11:27:25;;;;;;;1.73;1.00;;;24.50;99.90;;;;;;5015407;28;20057;-68
2021/08/02 11:29:53;;;;;;;3.95;0.90;;;24.50;99.90;;;;;;5015495;28;20053;-69
2021/08/02 11:32:20;;;;;;;2.15;0.80;;;24.60;99.90;;;;;;5015364;28;20393;-69
2021/08/02 11:34:52;;;;;;;2.13;1.00;;;24.60;99.90;;;;;;5015551;28;20417;-68
2021/08/02 11:37:25;;;;;;;1.38;0.70;;;24.60;99.90;;;;;;5015018;28;20026;-68
2021/08/02 11:39:58;;;;;;;1.27;0.80;;;24.70;99.90;;;;;;5015418;28;20033;-67
2021/08/02 11:42:24;;;;;;;2.65;0.90;;;24.70;99.90;;;;;;5015055;28;20029;-68
2021/08/02 11:44:54;;;;;;;2.30;0.98;;;24.70;99.90;;;;;;5016844;28;20156;-67
2021/08/02 11:47:22;;;;;;;1.35;0.73;;;24.70;99.90;;;;;;5014862;28;20091;-68
2021/08/02 11:49:48;;;;;;;1.15;0.70;;;24.70;99.90;;;;;;5014833;28;20474;-69
2021/08/02 11:52:16;;;;;;;1.70;0.80;;;24.70;99.90;;;;;;5015236;28;20053;-69
2021/08/02 11:54:44;;;;;;;1.42;0.90;;;24.70;99.90;;;;;;5015264;28;20103;-68
2021/08/02 11:57:23;;;;;;;1.88;0.80;;;24.70;99.90;;;;;;5024092;28;20108;-70
2021/08/02 12:00:03;;;;;;;1.73;0.90;;;24.70;99.90;;;;;;5021950;28;20018;-68
2021/08/02 12:02:37;;;;;;;1.63;0.90;;;24.80;99.90;;;;;;5031710;28;20036;-68
2021/08/02 12:05:06;;;;;;;1.23;0.85;;;24.80;99.90;;;;;;5034510;28;20022;-68
2021/08/02 12:07:32;;;;;;;2.55;1.02;;;24.80;99.90;;;;;;5034256;28;20155;-67
2021/08/02 12:10:22;;;;;;;1.27;0.88;;;24.80;99.90;;;;;;5032743;28;20021;-68
2021/08/02 12:13:02;;;;;;;2.63;1.00;;;25.00;99.90;;;;;;5006367;28;20053;-70
2021/08/02 12:15:29;;;;;;;5.13;0.82;;;25.00;99.90;;;;;;5014402;28;20022;-70
2021/08/02 12:17:56;;;;;;;1.23;0.70;;;25.10;99.90;;;;;;5014593;28;20562;-72
2021/08/02 12:20:39;;;;;;;2.00;1.08;;;25.20;99.90;;;;;;5017704;28;20026;-74
2021/08/02 12:23:08;;;;;;;2.53;0.90;;;25.10;99.90;;;;;;5014483;28;20466;-72
2021/08/02 12:25:46;;;;;;;2.47;0.90;;;25.10;99.90;;;;;;5014454;28;20030;-72
2021/08/02 12:28:13;;;;;;;1.83;1.00;;;25.00;99.90;;;;;;4998021;28;20026;-73
2021/08/02 12:30:41;;;;;;;4.68;1.17;;;25.00;99.90;;;;;;5013298;28;20022;-71
2021/08/02 12:33:08;;;;;;;1.77;0.85;;;25.10;99.90;;;;;;4996709;28;20474;-73
2021/08/02 12:35:34;;;;;;;1.80;1.23;;;25.10;99.90;;;;;;5013924;28;20045;-75
2021/08/02 12:38:01;;;;;;;4.85;1.20;;;25.10;99.90;;;;;;5014384;28;20482;-75
2021/08/02 12:40:27;;;;;;;2.08;0.80;;;25.10;99.90;;;;;;5013856;28;20108;-72
2021/08/02 12:42:53;;;;;;;1.90;0.93;;;25.10;99.90;;;;;;5013981;28;20452;-78
2021/08/02 12:45:19;;;;;;;2.20;0.90;;;25.10;99.90;;;;;;5013841;28;20033;-76
2021/08/02 12:47:47;;;;;;;1.65;0.98;;;25.00;99.90;;;;;;5013891;28;20022;-71
2021/08/02 12:50:14;;;;;;;1.20;0.70;;;25.10;99.90;;;;;;5014076;28;20048;-75
2021/08/02 12:52:40;;;;;;;1.50;0.85;;;25.10;99.90;;;;;;5014209;28;20498;-75
2021/08/02 12:55:09;;;;;;;1.85;0.90;;;25.10;99.90;;;;;;5013661;28;20051;-76